createdAt,value
2022-08-28T00:00:31.340Z,11.50
2022-08-28T00:03:18.580Z,11.87
2022-08-28T00:06:06.403Z,13.23
2022-08-28T00:08:53.536Z,12.77
2022-08-28T00:11:40.933Z,11.90
2022-08-28T00:14:28.329Z,12.40
2022-08-28T00:17:15.297Z,12.67
2022-08-28T00:20:03.106Z,14.07
2022-08-28T00:22:50.486Z,16.80
2022-08-28T00:25:37.893Z,10.90
2022-08-28T00:28:25.073Z,16.97
2022-08-28T00:31:13.372Z,10.27
2022-08-28T00:34:02.743Z,13.63
2022-08-28T00:36:49.856Z,12.20
2022-08-28T00:39:38.511Z,14.73
2022-08-28T00:42:25.663Z,11.73
2022-08-28T00:45:16.629Z,11.00
2022-08-28T00:48:03.985Z,13.63
2022-08-28T00:51:09.481Z,12.00
2022-08-28T00:53:58.950Z,13.20
2022-08-28T00:56:47.874Z,14.00
2022-08-28T00:59:35.130Z,15.17
2022-08-28T01:02:22.418Z,14.40
2022-08-28T01:05:10.176Z,15.50
2022-08-28T01:07:58.944Z,11.03
2022-08-28T01:10:52.314Z,13.40
2022-08-28T01:13:46.787Z,13.30
2022-08-28T01:16:35.184Z,12.10
2022-08-28T01:19:38.109Z,13.67
2022-08-28T01:22:44.535Z,14.57
2022-08-28T01:25:35.040Z,13.37
2022-08-28T01:28:22.169Z,13.77
2022-08-28T01:31:11.665Z,14.63
2022-08-28T01:33:59.539Z,14.87
2022-08-28T01:36:48.537Z,13.37
2022-08-28T01:39:35.727Z,14.57
2022-08-28T01:42:26.042Z,16.60
2022-08-28T01:45:20.669Z,12.73
2022-08-28T01:48:08.974Z,12.33
2022-08-28T01:50:56.222Z,16.47
2022-08-28T01:53:45.411Z,14.63
2022-08-28T01:56:34.321Z,12.67
2022-08-28T01:59:21.894Z,11.73
2022-08-28T02:02:10.934Z,14.97
2022-08-28T02:04:58.250Z,14.87
2022-08-28T02:07:45.885Z,15.80
2022-08-28T02:10:35.063Z,11.37
2022-08-28T02:13:22.435Z,15.50
2022-08-28T02:16:12.894Z,14.80
2022-08-28T02:19:00.738Z,13.90
2022-08-28T02:21:47.905Z,12.60
2022-08-28T02:24:35.829Z,14.17
2022-08-28T02:27:24.379Z,14.87
2022-08-28T02:30:13.377Z,16.53
2022-08-28T02:33:00.376Z,10.97
2022-08-28T02:35:47.712Z,17.87
2022-08-28T02:38:34.981Z,14.87
2022-08-28T02:41:22.218Z,15.60
2022-08-28T02:44:10.153Z,14.43
2022-08-28T02:46:57.409Z,16.20
2022-08-28T02:49:44.571Z,12.30
2022-08-28T02:52:31.709Z,15.57
2022-08-28T02:55:19.918Z,20.00
2022-08-28T02:58:09.731Z,15.67
2022-08-28T03:00:57.998Z,13.43
2022-08-28T03:03:46.231Z,11.63
2022-08-28T03:06:33.994Z,12.30
2022-08-28T03:09:20.946Z,17.13
2022-08-28T03:12:09.749Z,16.17
2022-08-28T03:14:56.969Z,14.27
2022-08-28T03:17:44.027Z,13.57
2022-08-28T03:20:31.025Z,15.17
2022-08-28T03:23:27.098Z,11.40
2022-08-28T03:26:18.918Z,14.83
2022-08-28T03:29:06.081Z,14.00
2022-08-28T03:31:53.173Z,13.77
2022-08-28T03:34:41.226Z,11.40
2022-08-28T03:37:28.225Z,13.13
2022-08-28T03:40:16.062Z,13.33
2022-08-28T03:43:03.074Z,16.17
2022-08-28T03:45:58.228Z,12.77
2022-08-28T03:48:46.229Z,13.50
2022-08-28T03:51:34.772Z,13.00
2022-08-28T03:54:21.840Z,10.83
2022-08-28T03:57:08.987Z,17.60
2022-08-28T03:59:56.169Z,13.33
2022-08-28T04:02:44.412Z,11.00
2022-08-28T04:05:31.441Z,14.00
2022-08-28T04:08:20.125Z,15.67
2022-08-28T04:11:07.289Z,16.20
2022-08-28T04:13:54.302Z,14.23
2022-08-28T04:16:41.656Z,15.00
2022-08-28T04:19:29.873Z,14.77
2022-08-28T04:22:16.962Z,8.87
2022-08-28T04:25:06.914Z,16.23
2022-08-28T04:27:53.888Z,12.57
2022-08-28T04:30:41.726Z,12.40
2022-08-28T04:33:29.368Z,14.30
2022-08-28T04:36:18.366Z,13.30
2022-08-28T04:39:08.705Z,11.33
2022-08-28T04:41:55.922Z,12.70
2022-08-28T04:44:42.977Z,17.27
2022-08-28T04:47:31.094Z,11.80
2022-08-28T04:50:18.239Z,11.13
2022-08-28T04:53:05.165Z,15.07
2022-08-28T04:55:54.700Z,14.10
2022-08-28T04:58:43.885Z,10.93
2022-08-28T05:01:30.947Z,12.70
2022-08-28T05:04:19.781Z,8.83
2022-08-28T05:07:06.969Z,11.77
2022-08-28T05:09:54.704Z,12.67
2022-08-28T05:12:41.755Z,11.77
2022-08-28T05:15:29.084Z,13.37
2022-08-28T05:18:18.249Z,10.50
2022-08-28T05:21:13.913Z,10.20
2022-08-28T05:24:01.510Z,11.23
2022-08-28T05:26:48.815Z,13.10
2022-08-28T05:29:35.917Z,8.30
2022-08-28T05:32:23.072Z,9.57
2022-08-28T05:35:10.125Z,12.97
2022-08-28T05:37:57.240Z,10.33
2022-08-28T05:40:47.894Z,12.50
2022-08-28T05:43:35.597Z,14.03
2022-08-28T05:46:23.243Z,9.40
2022-08-28T05:49:10.672Z,11.80
2022-08-28T05:51:57.710Z,11.77
2022-08-28T05:54:44.973Z,9.80
2022-08-28T05:57:32.040Z,8.17
2022-08-28T06:00:19.075Z,12.47
2022-08-28T06:03:06.106Z,11.47
2022-08-28T06:05:56.160Z,12.50
2022-08-28T06:08:58.121Z,11.20
2022-08-28T06:11:46.746Z,12.33
2022-08-28T06:14:34.478Z,11.33
2022-08-28T06:17:23.451Z,15.20
2022-08-28T06:20:11.428Z,11.27
2022-08-28T06:22:58.990Z,12.57
2022-08-28T06:25:49.158Z,12.93
2022-08-28T06:28:36.313Z,8.73
2022-08-28T06:31:26.456Z,6.37
2022-08-28T06:34:15.204Z,10.47
2022-08-28T06:37:02.214Z,9.63
2022-08-28T06:39:49.443Z,9.73
2022-08-28T06:42:36.693Z,11.87
2022-08-28T06:45:23.670Z,7.63
2022-08-28T06:48:13.994Z,10.83
2022-08-28T06:51:01.146Z,10.30
2022-08-28T06:53:48.313Z,8.67
2022-08-28T06:56:36.121Z,10.80
2022-08-28T06:59:23.256Z,8.77
2022-08-28T07:02:10.420Z,12.30
2022-08-28T07:04:57.676Z,9.37
2022-08-28T07:07:44.856Z,11.77
2022-08-28T07:10:32.311Z,14.47
2022-08-28T07:13:20.759Z,8.33
2022-08-28T07:16:08.700Z,8.23
2022-08-28T07:18:57.234Z,10.47
2022-08-28T07:21:45.862Z,8.83
2022-08-28T07:24:32.866Z,14.03
2022-08-28T07:27:21.499Z,8.63
2022-08-28T07:30:10.183Z,7.43
2022-08-28T07:32:57.387Z,7.97
2022-08-28T07:35:44.562Z,8.97
2022-08-28T07:38:31.606Z,11.63
2022-08-28T07:41:22.428Z,10.63
2022-08-28T07:44:30.245Z,11.13
2022-08-28T07:47:18.931Z,6.50
2022-08-28T07:50:06.178Z,6.37
2022-08-28T07:52:53.377Z,8.47
2022-08-28T07:55:40.674Z,9.37
2022-08-28T07:58:27.825Z,7.73
2022-08-28T08:01:17.533Z,8.37
2022-08-28T08:04:07.660Z,8.30
2022-08-28T08:06:57.998Z,11.77
2022-08-28T08:09:46.623Z,6.10
2022-08-28T08:12:34.728Z,9.97
2022-08-28T08:15:22.193Z,6.40
2022-08-28T08:18:09.240Z,10.03
2022-08-28T08:20:56.388Z,6.93
2022-08-28T08:23:43.661Z,6.43
2022-08-28T08:26:30.701Z,6.97
2022-08-28T08:29:17.997Z,8.63
2022-08-28T08:32:08.675Z,6.37
2022-08-28T08:34:56.061Z,7.47
2022-08-28T08:37:43.317Z,7.17
2022-08-28T08:40:30.583Z,8.37
2022-08-28T08:43:20.154Z,7.60
2022-08-28T08:46:09.262Z,7.23
2022-08-28T08:49:02.981Z,10.23
2022-08-28T08:52:18.861Z,7.23
2022-08-28T08:55:35.311Z,7.03
2022-08-28T08:58:38.361Z,6.27
2022-08-28T09:01:48.963Z,8.57
2022-08-28T09:04:46.477Z,11.47
2022-08-28T09:07:57.210Z,8.40
2022-08-28T09:10:53.950Z,9.67
2022-08-28T09:14:02.946Z,6.77
2022-08-28T09:16:50.590Z,6.03
2022-08-28T09:19:37.644Z,7.07
2022-08-28T09:22:24.611Z,8.63
2022-08-28T09:25:33.194Z,4.63
2022-08-28T09:28:32.540Z,8.37
2022-08-28T09:31:36.530Z,8.00
2022-08-28T09:34:33.383Z,6.10
2022-08-28T09:37:27.652Z,8.43
2022-08-28T09:41:02.461Z,7.60
2022-08-28T09:43:49.509Z,6.80
2022-08-28T09:46:39.238Z,6.43
2022-08-28T09:49:29.707Z,6.77
2022-08-28T09:52:24.965Z,10.33
2022-08-28T09:55:22.318Z,8.97
2022-08-28T09:58:09.869Z,9.40
2022-08-28T10:01:20.827Z,5.63
2022-08-28T10:04:38.586Z,9.20
2022-08-28T10:07:46.299Z,9.73
2022-08-28T10:10:44.577Z,4.97
2022-08-28T10:13:41.978Z,6.37
2022-08-28T10:16:51.010Z,8.17
2022-08-28T10:19:58.690Z,6.10
2022-08-28T10:23:08.665Z,6.50
2022-08-28T10:26:26.361Z,6.80
2022-08-28T10:29:30.240Z,6.03
2022-08-28T10:32:42.902Z,8.23
2022-08-28T10:35:45.693Z,4.70
2022-08-28T10:38:40.365Z,5.77
2022-08-28T10:41:41.214Z,5.60
2022-08-28T10:44:54.931Z,5.03
2022-08-28T10:47:48.523Z,5.53
2022-08-28T10:50:38.078Z,5.40
2022-08-28T10:53:48.638Z,7.77
2022-08-28T10:56:46.413Z,6.07
2022-08-28T10:59:48.629Z,6.00
2022-08-28T11:02:37.016Z,6.37
2022-08-28T11:05:29.790Z,4.70
2022-08-28T11:08:35.684Z,6.77
2022-08-28T11:11:46.417Z,7.43
2022-08-28T11:14:47.841Z,6.75
2022-08-28T11:17:41.973Z,6.77
2022-08-28T11:20:30.282Z,5.30
2022-08-28T11:23:23.589Z,8.98
2022-08-28T11:26:14.632Z,5.28
2022-08-28T11:29:04.483Z,6.47
2022-08-28T11:32:34.093Z,4.22
2022-08-28T11:35:40.456Z,7.22
2022-08-28T11:38:42.595Z,8.88
2022-08-28T11:42:00.092Z,5.65
2022-08-28T11:44:49.304Z,8.93
2022-08-28T11:47:44.131Z,3.77
2022-08-28T11:50:35.422Z,5.93
2022-08-28T11:53:53.803Z,5.17
2022-08-28T11:56:54.095Z,5.17
2022-08-28T12:00:00.502Z,4.88
2022-08-28T12:03:19.029Z,6.67
2022-08-28T12:06:09.761Z,5.55
2022-08-28T12:09:03.384Z,4.57
2022-08-28T12:12:00.136Z,4.57
2022-08-28T12:14:47.406Z,4.60
2022-08-28T12:17:46.627Z,8.27
2022-08-28T12:20:52.391Z,6.43
2022-08-28T12:23:44.429Z,7.00
2022-08-28T12:26:40.111Z,7.03
2022-08-28T12:29:44.179Z,6.97
2022-08-28T12:32:49.596Z,9.03
2022-08-28T12:35:37.105Z,7.17
2022-08-28T12:38:24.965Z,4.37
2022-08-28T12:41:20.915Z,3.90
2022-08-28T12:44:12.279Z,5.47
2022-08-28T12:46:59.770Z,5.30
2022-08-28T12:49:47.316Z,4.22
2022-08-28T12:52:35.339Z,3.95
2022-08-28T12:55:24.537Z,7.75
2022-08-28T12:58:14.200Z,9.85
2022-08-28T13:01:23.338Z,7.47
2022-08-28T13:04:32.745Z,4.90
2022-08-28T13:07:56.468Z,5.53
2022-08-28T13:10:49.747Z,5.23
2022-08-28T13:13:47.461Z,7.03
2022-08-28T13:16:41.602Z,4.43
2022-08-28T13:19:32.526Z,4.23
2022-08-28T13:22:39.841Z,9.10
2022-08-28T13:25:31.166Z,5.93
2022-08-28T13:28:19.017Z,3.15
2022-08-28T13:31:06.746Z,5.37
2022-08-28T13:34:05.974Z,4.97
2022-08-28T13:36:59.922Z,8.30
2022-08-28T13:39:47.052Z,7.40
2022-08-28T13:42:34.147Z,4.40
2022-08-28T13:45:21.136Z,5.10
2022-08-28T13:48:09.273Z,4.63
2022-08-28T13:51:05.045Z,6.07
2022-08-28T13:53:56.473Z,5.32
2022-08-28T13:56:47.781Z,5.28
2022-08-28T13:59:35.369Z,5.47
2022-08-28T14:02:41.728Z,4.60
2022-08-28T14:05:29.262Z,4.28
2022-08-28T14:08:19.684Z,6.05
2022-08-28T14:11:07.951Z,3.58
2022-08-28T14:13:55.696Z,6.15
2022-08-28T14:16:45.513Z,5.03
2022-08-28T14:19:32.998Z,3.47
2022-08-28T14:22:20.083Z,5.90
2022-08-28T14:25:09.527Z,3.92
2022-08-28T14:27:56.950Z,3.97
2022-08-28T14:30:45.933Z,4.00
2022-08-28T14:33:40.278Z,6.35
2022-08-28T14:39:34.147Z,6.07
2022-08-28T14:42:21.974Z,4.40
2022-08-28T14:45:09.591Z,5.33
2022-08-28T14:48:07.307Z,4.57
2022-08-28T14:50:54.929Z,5.07
2022-08-28T14:53:45.951Z,8.53
2022-08-28T14:56:47.843Z,4.10
2022-08-28T14:59:35.123Z,4.82
2022-08-28T15:02:26.757Z,4.03
2022-08-28T15:05:23.251Z,5.30
2022-08-28T15:11:29.100Z,3.50
2022-08-28T15:14:22.921Z,3.57
2022-08-28T15:17:09.993Z,6.70
2022-08-28T15:19:59.216Z,5.50
2022-08-28T15:22:46.533Z,5.33
2022-08-28T15:25:33.546Z,4.10
2022-08-28T15:28:20.714Z,3.93
2022-08-28T15:31:10.141Z,4.97
2022-08-28T15:33:57.574Z,3.42
2022-08-28T15:36:49.150Z,5.03
2022-08-28T15:40:01.539Z,5.37
2022-08-28T15:42:48.564Z,6.57
2022-08-28T15:45:40.377Z,5.70
2022-08-28T15:48:27.414Z,4.30
2022-08-28T15:51:15.613Z,4.60
2022-08-28T15:54:02.966Z,5.90
2022-08-28T15:56:52.793Z,5.90
2022-08-28T15:59:48.757Z,7.07
2022-08-28T16:02:38.069Z,6.23
2022-08-28T16:05:28.049Z,3.70
2022-08-28T16:08:18.522Z,6.03
2022-08-28T16:11:05.773Z,7.53
2022-08-28T16:13:53.076Z,5.60
2022-08-28T16:16:40.279Z,6.27
2022-08-28T16:19:33.556Z,4.83
2022-08-28T16:22:20.676Z,4.20
2022-08-28T16:25:08.498Z,5.83
2022-08-28T16:27:55.536Z,5.97
2022-08-28T16:30:43.738Z,6.30
2022-08-28T16:33:31.374Z,4.70
2022-08-28T16:36:19.429Z,5.00
2022-08-28T16:39:11.720Z,4.27
2022-08-28T16:42:00.119Z,3.27
2022-08-28T16:44:47.647Z,7.57
2022-08-28T16:47:36.698Z,4.37
2022-08-28T16:50:24.716Z,5.73
2022-08-28T16:53:12.882Z,8.73
2022-08-28T16:56:01.272Z,6.60
2022-08-28T16:58:48.940Z,5.83
2022-08-28T17:01:40.856Z,5.73
2022-08-28T17:04:29.586Z,4.67
2022-08-28T17:07:16.618Z,6.13
2022-08-28T17:10:04.849Z,10.10
2022-08-28T17:12:52.230Z,8.77
2022-08-28T17:15:39.606Z,7.63
2022-08-28T17:18:26.763Z,11.13
2022-08-28T17:21:32.281Z,7.03
2022-08-28T17:24:19.382Z,6.20
2022-08-28T17:27:07.469Z,7.97
2022-08-28T17:29:54.749Z,6.43
2022-08-28T17:32:41.821Z,5.97
2022-08-28T17:35:28.800Z,5.73
2022-08-28T17:38:15.790Z,6.00
2022-08-28T17:41:06.381Z,7.87
2022-08-28T17:43:53.398Z,6.67
2022-08-28T17:46:40.524Z,8.40
2022-08-28T17:49:27.599Z,11.07
2022-08-28T17:52:14.679Z,7.00
2022-08-28T17:55:01.801Z,8.07
2022-08-28T17:57:49.186Z,8.50
2022-08-28T18:00:36.613Z,11.50
2022-08-28T18:03:23.605Z,5.63
2022-08-28T18:06:10.638Z,7.47
2022-08-28T18:08:58.646Z,8.53
2022-08-28T18:11:45.814Z,6.63
2022-08-28T18:14:32.842Z,8.97
2022-08-28T18:17:20.001Z,8.67
2022-08-28T18:20:09.627Z,6.23
2022-08-28T18:22:56.831Z,9.00
2022-08-28T18:25:50.810Z,6.77
2022-08-28T18:28:38.334Z,5.83
2022-08-28T18:31:25.876Z,6.40
2022-08-28T18:34:12.961Z,7.00
2022-08-28T18:37:00.978Z,8.87
2022-08-28T18:39:47.942Z,9.07
2022-08-28T18:42:39.962Z,6.17
2022-08-28T18:45:27.042Z,8.73
2022-08-28T18:48:14.161Z,7.13
2022-08-28T18:51:01.824Z,7.50
2022-08-28T18:53:49.234Z,8.17
2022-08-28T18:56:38.236Z,7.93
2022-08-28T18:59:25.825Z,9.87
2022-08-28T19:02:13.015Z,10.07
2022-08-28T19:05:00.170Z,8.90
2022-08-28T19:07:47.709Z,7.80
2022-08-28T19:10:36.983Z,8.53
2022-08-28T19:13:23.953Z,8.17
2022-08-28T19:16:17.218Z,7.77
2022-08-28T19:19:04.657Z,7.47
2022-08-28T19:21:52.112Z,10.13
2022-08-28T19:24:39.433Z,8.53
2022-08-28T19:27:26.453Z,10.83
2022-08-28T19:30:16.520Z,10.97
2022-08-28T19:33:05.069Z,9.47
2022-08-28T19:35:52.063Z,9.53
2022-08-28T19:38:39.378Z,7.87
2022-08-28T19:41:27.848Z,12.13
2022-08-28T19:44:15.254Z,10.87
2022-08-28T19:47:02.330Z,8.43
2022-08-28T19:49:54.802Z,11.33
2022-08-28T19:52:45.274Z,7.77
2022-08-28T19:55:32.898Z,9.80
2022-08-28T19:58:19.866Z,10.13
2022-08-28T20:01:07.486Z,9.97
2022-08-28T20:03:54.801Z,7.87
2022-08-28T20:06:42.329Z,6.87
2022-08-28T20:09:29.706Z,7.33
2022-08-28T20:12:17.220Z,11.77
2022-08-28T20:15:08.789Z,7.73
2022-08-28T20:18:00.360Z,11.30
2022-08-28T20:20:49.637Z,9.40
2022-08-28T20:23:37.128Z,11.50
2022-08-28T20:26:24.129Z,10.97
2022-08-28T20:29:16.678Z,9.00
2022-08-28T20:32:05.747Z,7.60
2022-08-28T20:34:52.960Z,8.10
2022-08-28T20:37:45.139Z,9.67
2022-08-28T20:40:33.050Z,10.57
2022-08-28T20:43:20.086Z,10.03
2022-08-28T20:46:07.915Z,9.23
2022-08-28T20:48:55.115Z,10.87
2022-08-28T20:51:53.444Z,7.00
2022-08-28T20:54:42.042Z,6.87
2022-08-28T20:57:29.123Z,9.90
2022-08-28T21:00:16.154Z,8.53
2022-08-28T21:03:03.146Z,9.03
2022-08-28T21:05:50.271Z,9.07
2022-08-28T21:08:37.301Z,12.50
2022-08-28T21:11:25.486Z,9.50
2022-08-28T21:14:13.434Z,9.87
2022-08-28T21:17:00.573Z,13.53
2022-08-28T21:19:50.325Z,8.93
2022-08-28T21:22:37.478Z,9.87
2022-08-28T21:25:25.125Z,9.07
2022-08-28T21:28:12.122Z,11.37
2022-08-28T21:30:59.293Z,9.77
2022-08-28T21:33:46.514Z,13.40
2022-08-28T21:36:33.710Z,8.47
2022-08-28T21:39:21.034Z,9.00
2022-08-28T21:42:08.226Z,8.27
2022-08-28T21:44:55.570Z,9.27
2022-08-28T21:47:43.337Z,9.23
2022-08-28T21:50:30.347Z,10.30
2022-08-28T21:53:19.806Z,10.57
2022-08-28T21:56:07.949Z,8.83
2022-08-28T21:58:56.870Z,7.73
2022-08-28T22:01:44.172Z,9.07
2022-08-28T22:04:31.407Z,8.20
2022-08-28T22:07:18.976Z,9.90
2022-08-28T22:10:07.394Z,7.93
2022-08-28T22:12:54.395Z,9.43
2022-08-28T22:15:44.070Z,10.80
2022-08-28T22:18:32.048Z,8.83
2022-08-28T22:21:44.423Z,12.40
2022-08-28T22:24:31.578Z,6.87
2022-08-28T22:27:18.763Z,8.20
2022-08-28T22:30:06.209Z,9.40
2022-08-28T22:32:53.498Z,12.17
2022-08-28T22:35:40.644Z,9.37
2022-08-28T22:38:28.193Z,9.60
2022-08-28T22:41:15.598Z,7.87
2022-08-28T22:44:03.102Z,9.50
2022-08-28T22:46:50.187Z,14.10
2022-08-28T22:49:39.647Z,9.03
2022-08-28T22:52:27.091Z,7.20
2022-08-28T22:55:16.137Z,10.63
2022-08-28T22:58:03.366Z,11.20
2022-08-28T23:00:50.829Z,8.90
2022-08-28T23:03:38.126Z,9.60
2022-08-28T23:06:25.220Z,9.37
2022-08-28T23:09:12.298Z,9.83
2022-08-28T23:12:00.114Z,8.07
2022-08-28T23:14:48.836Z,11.17
2022-08-28T23:17:36.858Z,6.67
2022-08-28T23:20:24.078Z,9.77
2022-08-28T23:23:13.106Z,7.83
2022-08-28T23:26:00.189Z,8.80
2022-08-28T23:28:48.379Z,10.57
2022-08-28T23:31:35.936Z,7.77
2022-08-28T23:34:23.154Z,7.53
2022-08-28T23:37:10.141Z,9.50
2022-08-28T23:39:57.301Z,8.43
2022-08-28T23:42:45.595Z,8.03
2022-08-28T23:45:32.982Z,8.57
2022-08-28T23:48:20.346Z,8.33
2022-08-28T23:51:12.522Z,7.53
2022-08-28T23:54:00.192Z,8.80
2022-08-28T23:56:47.224Z,10.50
2022-08-28T23:59:34.638Z,9.70
